sensor_id;sensor_type;location;lat;lon;timestamp;P1;durP1;ratioP1;P2;durP2;ratioP2
77798;SDS011;66989;50.426;15.352;2023-02-12T00:01:48;27.40;;;13.48;;
77798;SDS011;66989;50.426;15.352;2023-02-12T00:04:13;29.45;;;12.65;;
77798;SDS011;66989;50.426;15.352;2023-02-12T00:06:40;25.80;;;12.40;;
77798;SDS011;66989;50.426;15.352;2023-02-12T00:09:05;23.93;;;11.67;;
77798;SDS011;66989;50.426;15.352;2023-02-12T00:11:31;22.95;;;12.63;;
77798;SDS011;66989;50.426;15.352;2023-02-12T00:13:56;25.38;;;11.63;;
77798;SDS011;66989;50.426;15.352;2023-02-12T00:16:23;24.20;;;11.07;;
77798;SDS011;66989;50.426;15.352;2023-02-12T00:18:51;24.83;;;10.45;;
77798;SDS011;66989;50.426;15.352;2023-02-12T00:21:18;27.85;;;12.25;;
77798;SDS011;66989;50.426;15.352;2023-02-12T00:23:44;28.67;;;11.50;;
77798;SDS011;66989;50.426;15.352;2023-02-12T00:26:10;25.63;;;11.63;;
77798;SDS011;66989;50.426;15.352;2023-02-12T00:28:38;26.02;;;11.45;;
77798;SDS011;66989;50.426;15.352;2023-02-12T00:31:10;23.02;;;11.02;;
77798;SDS011;66989;50.426;15.352;2023-02-12T00:33:38;25.40;;;10.88;;
77798;SDS011;66989;50.426;15.352;2023-02-12T00:36:04;19.10;;;9.25;;
77798;SDS011;66989;50.426;15.352;2023-02-12T00:38:30;19.83;;;8.88;;
77798;SDS011;66989;50.426;15.352;2023-02-12T00:40:55;19.83;;;8.57;;
77798;SDS011;66989;50.426;15.352;2023-02-12T00:43:21;23.23;;;10.35;;
77798;SDS011;66989;50.426;15.352;2023-02-12T00:45:46;23.40;;;11.05;;
77798;SDS011;66989;50.426;15.352;2023-02-12T00:48:12;28.00;;;12.48;;
77798;SDS011;66989;50.426;15.352;2023-02-12T00:50:38;22.00;;;9.63;;
77798;SDS011;66989;50.426;15.352;2023-02-12T00:53:07;27.20;;;10.77;;
77798;SDS011;66989;50.426;15.352;2023-02-12T00:55:33;21.98;;;9.25;;
77798;SDS011;66989;50.426;15.352;2023-02-12T00:57:59;27.48;;;11.15;;
77798;SDS011;66989;50.426;15.352;2023-02-12T01:00:24;22.35;;;11.52;;
77798;SDS011;66989;50.426;15.352;2023-02-12T01:02:50;28.33;;;11.82;;
77798;SDS011;66989;50.426;15.352;2023-02-12T01:05:15;25.80;;;11.75;;
77798;SDS011;66989;50.426;15.352;2023-02-12T01:07:41;23.45;;;10.45;;
77798;SDS011;66989;50.426;15.352;2023-02-12T01:10:06;25.63;;;10.82;;
77798;SDS011;66989;50.426;15.352;2023-02-12T01:12:32;24.40;;;10.57;;
77798;SDS011;66989;50.426;15.352;2023-02-12T01:14:57;20.05;;;8.98;;
77798;SDS011;66989;50.426;15.352;2023-02-12T01:17:23;30.25;;;13.20;;
77798;SDS011;66989;50.426;15.352;2023-02-12T01:19:48;31.17;;;11.57;;
77798;SDS011;66989;50.426;15.352;2023-02-12T01:22:14;26.08;;;10.57;;
77798;SDS011;66989;50.426;15.352;2023-02-12T01:24:40;25.88;;;10.13;;
77798;SDS011;66989;50.426;15.352;2023-02-12T01:27:05;28.97;;;12.77;;
77798;SDS011;66989;50.426;15.352;2023-02-12T01:29:31;18.27;;;8.80;;
77798;SDS011;66989;50.426;15.352;2023-02-12T01:31:56;20.95;;;9.43;;
77798;SDS011;66989;50.426;15.352;2023-02-12T01:34:21;19.10;;;9.27;;
77798;SDS011;66989;50.426;15.352;2023-02-12T01:36:47;23.60;;;10.20;;
77798;SDS011;66989;50.426;15.352;2023-02-12T01:39:12;20.70;;;8.83;;
77798;SDS011;66989;50.426;15.352;2023-02-12T01:41:39;27.27;;;10.73;;
77798;SDS011;66989;50.426;15.352;2023-02-12T01:46:39;22.77;;;10.82;;
77798;SDS011;66989;50.426;15.352;2023-02-12T01:49:09;25.95;;;10.35;;
77798;SDS011;66989;50.426;15.352;2023-02-12T01:51:41;27.45;;;11.43;;
77798;SDS011;66989;50.426;15.352;2023-02-12T01:54:09;26.00;;;10.38;;
77798;SDS011;66989;50.426;15.352;2023-02-12T01:56:38;19.30;;;8.30;;
77798;SDS011;66989;50.426;15.352;2023-02-12T01:59:03;20.75;;;8.23;;
77798;SDS011;66989;50.426;15.352;2023-02-12T02:01:30;21.58;;;8.73;;
77798;SDS011;66989;50.426;15.352;2023-02-12T02:03:59;17.35;;;8.13;;
77798;SDS011;66989;50.426;15.352;2023-02-12T02:06:29;19.40;;;7.78;;
77798;SDS011;66989;50.426;15.352;2023-02-12T02:08:58;21.67;;;11.05;;
77798;SDS011;66989;50.426;15.352;2023-02-12T02:11:24;21.80;;;8.68;;
77798;SDS011;66989;50.426;15.352;2023-02-12T02:14:08;22.23;;;10.23;;
77798;SDS011;66989;50.426;15.352;2023-02-12T02:16:56;17.75;;;8.48;;
77798;SDS011;66989;50.426;15.352;2023-02-12T02:20:05;18.17;;;10.10;;
77798;SDS011;66989;50.426;15.352;2023-02-12T02:37:24;18.48;;;8.52;;
77798;SDS011;66989;50.426;15.352;2023-02-12T02:48:21;26.75;;;10.50;;
77798;SDS011;66989;50.426;15.352;2023-02-12T02:50:52;22.77;;;9.75;;
77798;SDS011;66989;50.426;15.352;2023-02-12T02:53:34;21.95;;;9.98;;
77798;SDS011;66989;50.426;15.352;2023-02-12T02:56:22;25.45;;;10.20;;
77798;SDS011;66989;50.426;15.352;2023-02-12T03:01:39;25.85;;;11.65;;
77798;SDS011;66989;50.426;15.352;2023-02-12T03:04:11;28.30;;;9.52;;
77798;SDS011;66989;50.426;15.352;2023-02-12T03:06:42;21.77;;;8.85;;
77798;SDS011;66989;50.426;15.352;2023-02-12T03:09:34;19.77;;;8.90;;
77798;SDS011;66989;50.426;15.352;2023-02-12T03:12:02;28.75;;;10.70;;
77798;SDS011;66989;50.426;15.352;2023-02-12T03:14:36;28.13;;;12.18;;
77798;SDS011;66989;50.426;15.352;2023-02-12T03:17:24;28.20;;;11.02;;
77798;SDS011;66989;50.426;15.352;2023-02-12T03:19:57;26.20;;;10.60;;
77798;SDS011;66989;50.426;15.352;2023-02-12T03:22:32;21.65;;;10.35;;
77798;SDS011;66989;50.426;15.352;2023-02-12T03:25:06;26.27;;;10.57;;
77798;SDS011;66989;50.426;15.352;2023-02-12T03:27:38;28.73;;;11.57;;
77798;SDS011;66989;50.426;15.352;2023-02-12T03:30:08;30.42;;;11.88;;
77798;SDS011;66989;50.426;15.352;2023-02-12T03:35:38;23.20;;;10.32;;
77798;SDS011;66989;50.426;15.352;2023-02-12T03:38:29;28.23;;;11.27;;
77798;SDS011;66989;50.426;15.352;2023-02-12T03:41:05;19.98;;;7.45;;
77798;SDS011;66989;50.426;15.352;2023-02-12T03:46:14;22.60;;;9.23;;
77798;SDS011;66989;50.426;15.352;2023-02-12T03:51:19;20.88;;;8.38;;
77798;SDS011;66989;50.426;15.352;2023-02-12T03:53:49;26.75;;;12.10;;
77798;SDS011;66989;50.426;15.352;2023-02-12T03:56:19;27.40;;;11.38;;
77798;SDS011;66989;50.426;15.352;2023-02-12T03:58:49;19.08;;;9.00;;
77798;SDS011;66989;50.426;15.352;2023-02-12T04:01:14;20.63;;;9.35;;
77798;SDS011;66989;50.426;15.352;2023-02-12T04:03:41;25.42;;;10.40;;
77798;SDS011;66989;50.426;15.352;2023-02-12T04:06:22;21.60;;;10.90;;
77798;SDS011;66989;50.426;15.352;2023-02-12T04:08:50;24.77;;;11.95;;
77798;SDS011;66989;50.426;15.352;2023-02-12T04:17:21;26.13;;;10.35;;
77798;SDS011;66989;50.426;15.352;2023-02-12T04:22:30;16.38;;;7.93;;
77798;SDS011;66989;50.426;15.352;2023-02-12T04:25:42;20.00;;;7.93;;
77798;SDS011;66989;50.426;15.352;2023-02-12T04:28:22;22.85;;;10.43;;
77798;SDS011;66989;50.426;15.352;2023-02-12T04:31:19;23.65;;;11.82;;
77798;SDS011;66989;50.426;15.352;2023-02-12T04:34:04;22.15;;;9.35;;
77798;SDS011;66989;50.426;15.352;2023-02-12T04:36:56;26.90;;;11.60;;
77798;SDS011;66989;50.426;15.352;2023-02-12T04:39:24;24.38;;;10.30;;
77798;SDS011;66989;50.426;15.352;2023-02-12T04:41:52;24.60;;;11.52;;
77798;SDS011;66989;50.426;15.352;2023-02-12T04:44:21;24.92;;;11.50;;
77798;SDS011;66989;50.426;15.352;2023-02-12T04:46:49;25.50;;;11.90;;
77798;SDS011;66989;50.426;15.352;2023-02-12T04:49:16;28.65;;;11.45;;
77798;SDS011;66989;50.426;15.352;2023-02-12T04:51:43;23.27;;;9.95;;
77798;SDS011;66989;50.426;15.352;2023-02-12T04:54:09;24.33;;;11.93;;
77798;SDS011;66989;50.426;15.352;2023-02-12T04:56:34;27.60;;;12.43;;
77798;SDS011;66989;50.426;15.352;2023-02-12T04:59:00;62.70;;;13.27;;
77798;SDS011;66989;50.426;15.352;2023-02-12T05:01:25;24.75;;;11.23;;
77798;SDS011;66989;50.426;15.352;2023-02-12T05:03:51;27.25;;;12.88;;
77798;SDS011;66989;50.426;15.352;2023-02-12T05:06:17;31.20;;;11.40;;
77798;SDS011;66989;50.426;15.352;2023-02-12T05:08:42;24.70;;;11.10;;
77798;SDS011;66989;50.426;15.352;2023-02-12T05:11:08;25.50;;;11.68;;
77798;SDS011;66989;50.426;15.352;2023-02-12T05:13:34;27.08;;;10.32;;
77798;SDS011;66989;50.426;15.352;2023-02-12T05:16:04;24.08;;;9.65;;
77798;SDS011;66989;50.426;15.352;2023-02-12T05:18:31;21.65;;;9.10;;
77798;SDS011;66989;50.426;15.352;2023-02-12T05:20:57;21.67;;;9.95;;
77798;SDS011;66989;50.426;15.352;2023-02-12T05:23:31;22.67;;;10.63;;
77798;SDS011;66989;50.426;15.352;2023-02-12T05:25:59;25.50;;;9.35;;
77798;SDS011;66989;50.426;15.352;2023-02-12T05:28:25;27.08;;;9.95;;
77798;SDS011;66989;50.426;15.352;2023-02-12T05:30:51;25.33;;;10.50;;
77798;SDS011;66989;50.426;15.352;2023-02-12T05:33:16;29.75;;;11.38;;
77798;SDS011;66989;50.426;15.352;2023-02-12T05:35:41;33.75;;;11.63;;
77798;SDS011;66989;50.426;15.352;2023-02-12T05:38:07;28.20;;;11.55;;
77798;SDS011;66989;50.426;15.352;2023-02-12T05:40:32;29.20;;;11.00;;
77798;SDS011;66989;50.426;15.352;2023-02-12T05:42:58;25.83;;;11.23;;
77798;SDS011;66989;50.426;15.352;2023-02-12T05:45:24;25.33;;;11.05;;
77798;SDS011;66989;50.426;15.352;2023-02-12T05:47:52;22.13;;;10.02;;
77798;SDS011;66989;50.426;15.352;2023-02-12T05:50:18;29.52;;;13.18;;
77798;SDS011;66989;50.426;15.352;2023-02-12T05:52:44;26.67;;;10.35;;
77798;SDS011;66989;50.426;15.352;2023-02-12T05:55:09;29.15;;;10.38;;
77798;SDS011;66989;50.426;15.352;2023-02-12T05:57:36;29.05;;;11.30;;
77798;SDS011;66989;50.426;15.352;2023-02-12T06:00:02;24.77;;;9.15;;
77798;SDS011;66989;50.426;15.352;2023-02-12T06:02:33;34.30;;;11.15;;
77798;SDS011;66989;50.426;15.352;2023-02-12T06:04:59;36.75;;;12.65;;
77798;SDS011;66989;50.426;15.352;2023-02-12T06:07:24;57.63;;;15.48;;
77798;SDS011;66989;50.426;15.352;2023-02-12T06:09:50;43.70;;;14.25;;
77798;SDS011;66989;50.426;15.352;2023-02-12T06:12:15;50.03;;;16.08;;
77798;SDS011;66989;50.426;15.352;2023-02-12T06:14:41;40.70;;;13.00;;
77798;SDS011;66989;50.426;15.352;2023-02-12T06:17:07;31.95;;;12.13;;
77798;SDS011;66989;50.426;15.352;2023-02-12T06:19:32;30.88;;;11.55;;
77798;SDS011;66989;50.426;15.352;2023-02-12T06:21:58;33.22;;;12.55;;
77798;SDS011;66989;50.426;15.352;2023-02-12T06:24:23;40.53;;;13.68;;
77798;SDS011;66989;50.426;15.352;2023-02-12T06:26:49;33.90;;;11.07;;
77798;SDS011;66989;50.426;15.352;2023-02-12T06:29:16;28.48;;;9.85;;
77798;SDS011;66989;50.426;15.352;2023-02-12T06:31:42;30.33;;;10.98;;
77798;SDS011;66989;50.426;15.352;2023-02-12T06:34:09;38.70;;;13.77;;
77798;SDS011;66989;50.426;15.352;2023-02-12T06:36:36;31.00;;;12.10;;
77798;SDS011;66989;50.426;15.352;2023-02-12T06:39:03;30.00;;;11.00;;
77798;SDS011;66989;50.426;15.352;2023-02-12T06:41:29;29.88;;;10.85;;
77798;SDS011;66989;50.426;15.352;2023-02-12T06:43:54;27.60;;;11.20;;
77798;SDS011;66989;50.426;15.352;2023-02-12T06:46:20;30.23;;;10.98;;
77798;SDS011;66989;50.426;15.352;2023-02-12T06:48:45;22.20;;;8.15;;
77798;SDS011;66989;50.426;15.352;2023-02-12T06:51:12;21.33;;;8.90;;
77798;SDS011;66989;50.426;15.352;2023-02-12T06:53:41;24.45;;;9.50;;
77798;SDS011;66989;50.426;15.352;2023-02-12T06:56:08;22.27;;;8.23;;
77798;SDS011;66989;50.426;15.352;2023-02-12T06:58:36;22.33;;;6.90;;
77798;SDS011;66989;50.426;15.352;2023-02-12T07:03:37;14.65;;;7.68;;
77798;SDS011;66989;50.426;15.352;2023-02-12T07:08:29;14.48;;;7.10;;
77798;SDS011;66989;50.426;15.352;2023-02-12T07:10:55;16.70;;;8.63;;
77798;SDS011;66989;50.426;15.352;2023-02-12T07:13:21;27.73;;;18.10;;
77798;SDS011;66989;50.426;15.352;2023-02-12T07:15:46;19.60;;;10.85;;
77798;SDS011;66989;50.426;15.352;2023-02-12T07:18:12;17.17;;;9.40;;
77798;SDS011;66989;50.426;15.352;2023-02-12T07:20:37;16.55;;;9.23;;
77798;SDS011;66989;50.426;15.352;2023-02-12T07:23:03;14.88;;;8.85;;
77798;SDS011;66989;50.426;15.352;2023-02-12T07:25:28;13.88;;;7.65;;
77798;SDS011;66989;50.426;15.352;2023-02-12T07:27:53;12.02;;;6.13;;
77798;SDS011;66989;50.426;15.352;2023-02-12T07:30:19;16.38;;;9.98;;
77798;SDS011;66989;50.426;15.352;2023-02-12T07:32:44;15.13;;;7.32;;
77798;SDS011;66989;50.426;15.352;2023-02-12T07:35:10;15.27;;;8.30;;
77798;SDS011;66989;50.426;15.352;2023-02-12T07:37:36;15.70;;;7.80;;
77798;SDS011;66989;50.426;15.352;2023-02-12T07:40:01;18.98;;;8.35;;
77798;SDS011;66989;50.426;15.352;2023-02-12T07:42:30;13.55;;;8.07;;
77798;SDS011;66989;50.426;15.352;2023-02-12T07:44:55;15.25;;;9.10;;
77798;SDS011;66989;50.426;15.352;2023-02-12T07:47:20;12.57;;;7.03;;
77798;SDS011;66989;50.426;15.352;2023-02-12T07:49:46;18.23;;;8.02;;
77798;SDS011;66989;50.426;15.352;2023-02-12T07:52:18;17.38;;;9.70;;
77798;SDS011;66989;50.426;15.352;2023-02-12T07:54:45;13.70;;;7.97;;
77798;SDS011;66989;50.426;15.352;2023-02-12T07:57:14;15.55;;;7.55;;
77798;SDS011;66989;50.426;15.352;2023-02-12T07:59:40;13.82;;;8.13;;
77798;SDS011;66989;50.426;15.352;2023-02-12T08:02:08;15.27;;;9.55;;
77798;SDS011;66989;50.426;15.352;2023-02-12T08:04:34;18.70;;;9.82;;
77798;SDS011;66989;50.426;15.352;2023-02-12T08:06:59;16.50;;;8.80;;
77798;SDS011;66989;50.426;15.352;2023-02-12T08:09:26;17.63;;;9.25;;
77798;SDS011;66989;50.426;15.352;2023-02-12T08:11:55;16.35;;;8.43;;
77798;SDS011;66989;50.426;15.352;2023-02-12T08:14:21;15.13;;;9.45;;
77798;SDS011;66989;50.426;15.352;2023-02-12T08:16:47;19.80;;;8.60;;
77798;SDS011;66989;50.426;15.352;2023-02-12T08:19:13;14.77;;;8.30;;
77798;SDS011;66989;50.426;15.352;2023-02-12T08:21:39;13.50;;;8.85;;
77798;SDS011;66989;50.426;15.352;2023-02-12T08:24:05;12.90;;;8.03;;
77798;SDS011;66989;50.426;15.352;2023-02-12T08:26:33;12.32;;;7.75;;
77798;SDS011;66989;50.426;15.352;2023-02-12T08:31:32;18.55;;;9.35;;
77798;SDS011;66989;50.426;15.352;2023-02-12T08:34:00;16.25;;;9.15;;
77798;SDS011;66989;50.426;15.352;2023-02-12T08:36:27;17.13;;;6.50;;
77798;SDS011;66989;50.426;15.352;2023-02-12T08:38:58;14.63;;;7.10;;
77798;SDS011;66989;50.426;15.352;2023-02-12T08:41:25;14.77;;;8.45;;
77798;SDS011;66989;50.426;15.352;2023-02-12T08:43:54;12.00;;;7.05;;
77798;SDS011;66989;50.426;15.352;2023-02-12T08:46:23;12.32;;;7.25;;
77798;SDS011;66989;50.426;15.352;2023-02-12T08:48:51;15.52;;;8.70;;
77798;SDS011;66989;50.426;15.352;2023-02-12T08:51:22;13.23;;;7.72;;
77798;SDS011;66989;50.426;15.352;2023-02-12T08:53:53;12.43;;;8.95;;
77798;SDS011;66989;50.426;15.352;2023-02-12T08:56:20;13.40;;;7.47;;
77798;SDS011;66989;50.426;15.352;2023-02-12T08:58:46;11.40;;;7.18;;
77798;SDS011;66989;50.426;15.352;2023-02-12T09:01:19;12.00;;;7.15;;
77798;SDS011;66989;50.426;15.352;2023-02-12T09:03:47;11.48;;;7.25;;
77798;SDS011;66989;50.426;15.352;2023-02-12T09:06:14;12.32;;;7.38;;
77798;SDS011;66989;50.426;15.352;2023-02-12T09:08:41;12.35;;;8.55;;
77798;SDS011;66989;50.426;15.352;2023-02-12T09:11:08;14.85;;;7.88;;
77798;SDS011;66989;50.426;15.352;2023-02-12T09:13:40;12.90;;;7.50;;
77798;SDS011;66989;50.426;15.352;2023-02-12T09:16:06;10.65;;;6.72;;
77798;SDS011;66989;50.426;15.352;2023-02-12T09:18:32;9.52;;;7.15;;
77798;SDS011;66989;50.426;15.352;2023-02-12T09:23:28;18.20;;;9.52;;
77798;SDS011;66989;50.426;15.352;2023-02-12T09:25:56;16.85;;;10.30;;
77798;SDS011;66989;50.426;15.352;2023-02-12T09:28:22;17.45;;;9.30;;
77798;SDS011;66989;50.426;15.352;2023-02-12T09:30:48;14.40;;;9.55;;
77798;SDS011;66989;50.426;15.352;2023-02-12T09:33:13;16.98;;;7.85;;
77798;SDS011;66989;50.426;15.352;2023-02-12T09:35:39;13.90;;;7.80;;
77798;SDS011;66989;50.426;15.352;2023-02-12T09:38:05;13.52;;;6.88;;
77798;SDS011;66989;50.426;15.352;2023-02-12T09:45:59;11.30;;;5.85;;
77798;SDS011;66989;50.426;15.352;2023-02-12T09:51:24;8.93;;;5.05;;
77798;SDS011;66989;50.426;15.352;2023-02-12T09:53:58;10.82;;;6.75;;
77798;SDS011;66989;50.426;15.352;2023-02-12T09:56:30;9.05;;;6.05;;
77798;SDS011;66989;50.426;15.352;2023-02-12T09:59:06;9.75;;;6.00;;
77798;SDS011;66989;50.426;15.352;2023-02-12T10:01:33;10.70;;;7.10;;
77798;SDS011;66989;50.426;15.352;2023-02-12T10:06:30;8.43;;;5.60;;
77798;SDS011;66989;50.426;15.352;2023-02-12T10:09:09;8.35;;;4.80;;
77798;SDS011;66989;50.426;15.352;2023-02-12T10:25:34;13.05;;;9.13;;
77798;SDS011;66989;50.426;15.352;2023-02-12T10:28:15;16.45;;;11.73;;
77798;SDS011;66989;50.426;15.352;2023-02-12T10:34:21;12.68;;;8.15;;
77798;SDS011;66989;50.426;15.352;2023-02-12T10:36:52;29.33;;;17.55;;
77798;SDS011;66989;50.426;15.352;2023-02-12T10:39:25;18.38;;;14.43;;
77798;SDS011;66989;50.426;15.352;2023-02-12T10:41:55;9.85;;;7.03;;
77798;SDS011;66989;50.426;15.352;2023-02-12T10:44:27;17.27;;;11.82;;
77798;SDS011;66989;50.426;15.352;2023-02-12T10:46:53;12.07;;;8.93;;
77798;SDS011;66989;50.426;15.352;2023-02-12T10:59:38;10.77;;;6.32;;
77798;SDS011;66989;50.426;15.352;2023-02-12T11:02:16;28.50;;;17.33;;
77798;SDS011;66989;50.426;15.352;2023-02-12T11:04:43;13.50;;;8.45;;
77798;SDS011;66989;50.426;15.352;2023-02-12T11:07:09;6.43;;;4.97;;
77798;SDS011;66989;50.426;15.352;2023-02-12T11:09:43;5.13;;;3.97;;
77798;SDS011;66989;50.426;15.352;2023-02-12T11:12:25;18.95;;;16.95;;
77798;SDS011;66989;50.426;15.352;2023-02-12T11:15:17;6.78;;;6.07;;
77798;SDS011;66989;50.426;15.352;2023-02-12T11:17:44;4.53;;;4.07;;
77798;SDS011;66989;50.426;15.352;2023-02-12T11:20:22;6.35;;;5.28;;
77798;SDS011;66989;50.426;15.352;2023-02-12T11:31:21;14.18;;;9.68;;
77798;SDS011;66989;50.426;15.352;2023-02-12T11:36:48;12.60;;;8.10;;
77798;SDS011;66989;50.426;15.352;2023-02-12T11:39:20;10.57;;;7.35;;
77798;SDS011;66989;50.426;15.352;2023-02-12T11:44:51;13.02;;;9.45;;
77798;SDS011;66989;50.426;15.352;2023-02-12T11:47:23;12.32;;;8.48;;
77798;SDS011;66989;50.426;15.352;2023-02-12T11:49:52;12.63;;;7.70;;
77798;SDS011;66989;50.426;15.352;2023-02-12T11:52:24;10.23;;;6.65;;
77798;SDS011;66989;50.426;15.352;2023-02-12T11:54:53;7.15;;;5.10;;
77798;SDS011;66989;50.426;15.352;2023-02-12T11:57:34;6.55;;;4.82;;
77798;SDS011;66989;50.426;15.352;2023-02-12T12:00:02;7.25;;;4.47;;
77798;SDS011;66989;50.426;15.352;2023-02-12T12:02:57;7.70;;;5.72;;
77798;SDS011;66989;50.426;15.352;2023-02-12T12:05:35;6.68;;;4.72;;
77798;SDS011;66989;50.426;15.352;2023-02-12T12:10:43;7.88;;;4.38;;
77798;SDS011;66989;50.426;15.352;2023-02-12T12:13:16;9.43;;;5.70;;
77798;SDS011;66989;50.426;15.352;2023-02-12T12:18:41;8.55;;;5.50;;
77798;SDS011;66989;50.426;15.352;2023-02-12T12:24:16;10.70;;;7.30;;
77798;SDS011;66989;50.426;15.352;2023-02-12T12:26:48;13.18;;;6.15;;
77798;SDS011;66989;50.426;15.352;2023-02-12T12:32:16;8.77;;;5.13;;
77798;SDS011;66989;50.426;15.352;2023-02-12T12:34:45;8.63;;;6.13;;
77798;SDS011;66989;50.426;15.352;2023-02-12T12:49:02;8.60;;;5.07;;
77798;SDS011;66989;50.426;15.352;2023-02-12T12:51:52;9.10;;;4.65;;
77798;SDS011;66989;50.426;15.352;2023-02-12T13:03:50;9.30;;;5.25;;
77798;SDS011;66989;50.426;15.352;2023-02-12T13:06:20;11.25;;;5.70;;
77798;SDS011;66989;50.426;15.352;2023-02-12T13:17:12;31.75;;;17.05;;
77798;SDS011;66989;50.426;15.352;2023-02-12T13:19:46;20.95;;;12.20;;
77798;SDS011;66989;50.426;15.352;2023-02-12T13:27:51;12.45;;;7.53;;
77798;SDS011;66989;50.426;15.352;2023-02-12T13:30:24;12.02;;;5.93;;
77798;SDS011;66989;50.426;15.352;2023-02-12T13:33:06;21.08;;;8.30;;
77798;SDS011;66989;50.426;15.352;2023-02-12T13:35:37;16.10;;;9.55;;
77798;SDS011;66989;50.426;15.352;2023-02-12T13:38:07;22.38;;;11.50;;
77798;SDS011;66989;50.426;15.352;2023-02-12T13:40:40;17.05;;;9.82;;
77798;SDS011;66989;50.426;15.352;2023-02-12T13:51:29;9.55;;;3.38;;
77798;SDS011;66989;50.426;15.352;2023-02-12T13:57:15;14.98;;;5.28;;
77798;SDS011;66989;50.426;15.352;2023-02-12T13:59:46;17.60;;;6.68;;
77798;SDS011;66989;50.426;15.352;2023-02-12T14:04:59;11.38;;;5.88;;
77798;SDS011;66989;50.426;15.352;2023-02-12T14:10:44;7.20;;;3.38;;
77798;SDS011;66989;50.426;15.352;2023-02-12T14:13:26;9.80;;;3.78;;
77798;SDS011;66989;50.426;15.352;2023-02-12T14:15:58;9.82;;;3.88;;
77798;SDS011;66989;50.426;15.352;2023-02-12T14:18:45;10.02;;;3.78;;
77798;SDS011;66989;50.426;15.352;2023-02-12T14:23:36;12.57;;;6.60;;
77798;SDS011;66989;50.426;15.352;2023-02-12T14:28:46;25.83;;;10.13;;
77798;SDS011;66989;50.426;15.352;2023-02-12T14:33:48;24.45;;;9.18;;
77798;SDS011;66989;50.426;15.352;2023-02-12T14:38:57;22.23;;;9.40;;
77798;SDS011;66989;50.426;15.352;2023-02-12T14:41:33;14.43;;;5.55;;
77798;SDS011;66989;50.426;15.352;2023-02-12T14:46:44;10.98;;;3.97;;
77798;SDS011;66989;50.426;15.352;2023-02-12T14:49:22;7.45;;;2.83;;
77798;SDS011;66989;50.426;15.352;2023-02-12T14:52:36;23.77;;;8.02;;
77798;SDS011;66989;50.426;15.352;2023-02-12T14:54:51;24.23;;;10.07;;
77798;SDS011;66989;50.426;15.352;2023-02-12T14:57:25;15.43;;;5.40;;
77798;SDS011;66989;50.426;15.352;2023-02-12T14:59:54;10.98;;;4.13;;
77798;SDS011;66989;50.426;15.352;2023-02-12T15:02:23;10.60;;;4.50;;
77798;SDS011;66989;50.426;15.352;2023-02-12T15:04:51;6.95;;;2.38;;
77798;SDS011;66989;50.426;15.352;2023-02-12T15:08:02;8.20;;;3.45;;
77798;SDS011;66989;50.426;15.352;2023-02-12T15:10:18;6.72;;;2.40;;
77798;SDS011;66989;50.426;15.352;2023-02-12T15:13:07;9.77;;;2.45;;
77798;SDS011;66989;50.426;15.352;2023-02-12T15:15:32;8.48;;;2.85;;
77798;SDS011;66989;50.426;15.352;2023-02-12T15:21:00;5.80;;;2.40;;
77798;SDS011;66989;50.426;15.352;2023-02-12T15:23:38;11.25;;;4.97;;
77798;SDS011;66989;50.426;15.352;2023-02-12T15:26:05;8.35;;;3.60;;
77798;SDS011;66989;50.426;15.352;2023-02-12T15:28:37;10.80;;;4.35;;
77798;SDS011;66989;50.426;15.352;2023-02-12T15:31:04;8.38;;;4.03;;
77798;SDS011;66989;50.426;15.352;2023-02-12T15:33:35;6.93;;;2.92;;
77798;SDS011;66989;50.426;15.352;2023-02-12T15:36:05;9.30;;;5.35;;
77798;SDS011;66989;50.426;15.352;2023-02-12T15:38:41;10.15;;;4.75;;
77798;SDS011;66989;50.426;15.352;2023-02-12T15:41:08;13.13;;;4.93;;
77798;SDS011;66989;50.426;15.352;2023-02-12T15:46:16;6.90;;;3.85;;
77798;SDS011;66989;50.426;15.352;2023-02-12T15:48:42;11.55;;;5.07;;
77798;SDS011;66989;50.426;15.352;2023-02-12T15:53:49;8.35;;;3.70;;
77798;SDS011;66989;50.426;15.352;2023-02-12T15:56:16;12.85;;;6.07;;
77798;SDS011;66989;50.426;15.352;2023-02-12T15:58:48;14.20;;;7.47;;
77798;SDS011;66989;50.426;15.352;2023-02-12T16:01:26;12.35;;;5.80;;
77798;SDS011;66989;50.426;15.352;2023-02-12T16:04:09;9.65;;;5.78;;
77798;SDS011;66989;50.426;15.352;2023-02-12T16:06:36;10.35;;;5.07;;
77798;SDS011;66989;50.426;15.352;2023-02-12T16:09:18;6.22;;;3.72;;
77798;SDS011;66989;50.426;15.352;2023-02-12T16:11:52;10.85;;;4.80;;
77798;SDS011;66989;50.426;15.352;2023-02-12T16:14:27;10.68;;;4.93;;
77798;SDS011;66989;50.426;15.352;2023-02-12T16:19:56;8.55;;;4.03;;
77798;SDS011;66989;50.426;15.352;2023-02-12T16:22:34;15.77;;;6.18;;
77798;SDS011;66989;50.426;15.352;2023-02-12T16:25:04;7.88;;;4.53;;
77798;SDS011;66989;50.426;15.352;2023-02-12T16:27:41;10.00;;;4.63;;
77798;SDS011;66989;50.426;15.352;2023-02-12T16:30:25;12.20;;;5.70;;
77798;SDS011;66989;50.426;15.352;2023-02-12T16:33:03;10.35;;;5.68;;
77798;SDS011;66989;50.426;15.352;2023-02-12T16:35:35;13.70;;;6.05;;
77798;SDS011;66989;50.426;15.352;2023-02-12T16:43:38;13.98;;;6.25;;
77798;SDS011;66989;50.426;15.352;2023-02-12T16:46:05;10.05;;;3.13;;
77798;SDS011;66989;50.426;15.352;2023-02-12T16:48:36;9.80;;;2.92;;
77798;SDS011;66989;50.426;15.352;2023-02-12T16:51:04;5.72;;;3.10;;
77798;SDS011;66989;50.426;15.352;2023-02-12T16:53:31;12.68;;;5.68;;
77798;SDS011;66989;50.426;15.352;2023-02-12T16:56:05;17.58;;;7.72;;
77798;SDS011;66989;50.426;15.352;2023-02-12T16:58:39;18.00;;;6.07;;
77798;SDS011;66989;50.426;15.352;2023-02-12T17:01:05;13.10;;;6.30;;
77798;SDS011;66989;50.426;15.352;2023-02-12T17:03:30;20.52;;;8.55;;
77798;SDS011;66989;50.426;15.352;2023-02-12T17:05:56;16.33;;;8.82;;
77798;SDS011;66989;50.426;15.352;2023-02-12T17:08:23;19.48;;;11.00;;
77798;SDS011;66989;50.426;15.352;2023-02-12T17:13:19;29.08;;;15.77;;
77798;SDS011;66989;50.426;15.352;2023-02-12T17:15:55;29.27;;;14.30;;
77798;SDS011;66989;50.426;15.352;2023-02-12T17:18:26;26.27;;;15.55;;
77798;SDS011;66989;50.426;15.352;2023-02-12T17:20:55;27.98;;;15.73;;
77798;SDS011;66989;50.426;15.352;2023-02-12T17:23:27;35.42;;;20.73;;
77798;SDS011;66989;50.426;15.352;2023-02-12T17:25:52;60.78;;;33.95;;
77798;SDS011;66989;50.426;15.352;2023-02-12T17:28:18;54.80;;;30.70;;
77798;SDS011;66989;50.426;15.352;2023-02-12T17:30:44;44.38;;;27.65;;
77798;SDS011;66989;50.426;15.352;2023-02-12T17:33:11;34.92;;;24.08;;
77798;SDS011;66989;50.426;15.352;2023-02-12T17:35:48;19.30;;;11.57;;
77798;SDS011;66989;50.426;15.352;2023-02-12T17:38:14;21.60;;;13.85;;
77798;SDS011;66989;50.426;15.352;2023-02-12T17:40:39;21.70;;;10.68;;
77798;SDS011;66989;50.426;15.352;2023-02-12T17:43:05;21.13;;;10.82;;
77798;SDS011;66989;50.426;15.352;2023-02-12T17:45:30;18.58;;;11.40;;
77798;SDS011;66989;50.426;15.352;2023-02-12T17:47:56;22.15;;;10.50;;
77798;SDS011;66989;50.426;15.352;2023-02-12T17:50:25;20.98;;;10.73;;
77798;SDS011;66989;50.426;15.352;2023-02-12T17:52:51;21.10;;;9.13;;
77798;SDS011;66989;50.426;15.352;2023-02-12T17:55:23;18.05;;;8.32;;
77798;SDS011;66989;50.426;15.352;2023-02-12T17:58:02;16.75;;;9.35;;
77798;SDS011;66989;50.426;15.352;2023-02-12T18:00:27;13.50;;;7.57;;